createdAt,value
2022-11-05T00:00:16.784Z,6.63
2022-11-05T00:03:03.383Z,6.55
2022-11-05T00:05:48.918Z,6.18
2022-11-05T00:08:35.759Z,6.22
2022-11-05T00:11:02.614Z,5.63
2022-11-05T00:13:50.646Z,6.00
2022-11-05T00:16:40.202Z,5.90
2022-11-05T00:19:07.435Z,5.60
2022-11-05T00:21:54.138Z,5.63
2022-11-05T00:24:42.209Z,5.32
2022-11-05T00:27:09.340Z,4.60
2022-11-05T00:29:36.006Z,5.15
2022-11-05T00:32:04.610Z,5.22
2022-11-05T00:34:31.359Z,4.95
2022-11-05T00:36:58.006Z,4.88
2022-11-05T00:39:26.328Z,5.00
2022-11-05T00:42:11.925Z,4.77
2022-11-05T00:44:57.396Z,4.60
2022-11-05T00:47:42.572Z,4.90
2022-11-05T00:50:10.846Z,4.60
2022-11-05T00:52:56.160Z,4.80
2022-11-05T00:55:26.470Z,4.90
2022-11-05T00:57:54.199Z,5.40
2022-11-05T01:00:23.265Z,5.15
2022-11-05T01:02:50.031Z,5.25
2022-11-05T01:05:17.249Z,5.28
2022-11-05T01:07:43.946Z,5.75
2022-11-05T01:10:10.693Z,5.00
2022-11-05T01:12:38.927Z,5.65
2022-11-05T01:15:06.984Z,5.85
2022-11-05T01:17:33.637Z,5.67
2022-11-05T01:20:00.301Z,5.53
2022-11-05T01:22:27.201Z,5.72
2022-11-05T01:24:53.847Z,5.30
2022-11-05T01:27:20.533Z,5.57
2022-11-05T01:29:48.632Z,5.82
2022-11-05T01:32:15.390Z,5.53
2022-11-05T01:34:42.415Z,4.95
2022-11-05T01:37:09.202Z,5.32
2022-11-05T01:39:36.165Z,5.70
2022-11-05T01:42:03.082Z,5.30
2022-11-05T01:44:53.185Z,5.30
2022-11-05T01:47:32.443Z,5.38
2022-11-05T01:50:02.619Z,5.43
2022-11-05T01:52:32.288Z,5.40
2022-11-05T01:54:59.525Z,5.45
2022-11-05T01:57:27.341Z,5.60
2022-11-05T01:59:58.935Z,5.32
2022-11-05T02:02:26.241Z,5.28
2022-11-05T02:04:57.752Z,5.30
2022-11-05T02:07:27.030Z,6.00
2022-11-05T02:09:59.132Z,5.05
2022-11-05T02:12:26.665Z,5.05
2022-11-05T02:14:54.362Z,5.40
2022-11-05T02:17:39.519Z,5.70
2022-11-05T02:20:18.741Z,5.35
2022-11-05T02:23:37.799Z,5.25
2022-11-05T02:26:24.343Z,5.22
2022-11-05T02:29:25.888Z,5.18
2022-11-05T02:32:04.417Z,4.95
2022-11-05T02:34:42.271Z,5.20
2022-11-05T02:37:17.740Z,4.93
2022-11-05T02:39:54.033Z,5.10
2022-11-05T02:42:30.373Z,4.95
2022-11-05T02:45:03.092Z,5.20
2022-11-05T02:47:40.522Z,5.05
2022-11-05T02:50:18.741Z,4.80
2022-11-05T02:52:52.861Z,5.00
2022-11-05T02:55:25.870Z,4.88
2022-11-05T02:57:53.283Z,5.15
2022-11-05T03:00:41.979Z,4.90
2022-11-05T03:03:37.103Z,4.90
2022-11-05T03:06:21.746Z,4.60
2022-11-05T03:09:10.284Z,4.75
2022-11-05T03:11:49.565Z,4.55
2022-11-05T03:14:23.794Z,4.63
2022-11-05T03:16:58.854Z,4.65
2022-11-05T03:19:35.553Z,4.25
2022-11-05T03:22:07.501Z,4.18
2022-11-05T03:24:38.273Z,4.45
2022-11-05T03:27:08.210Z,3.90
2022-11-05T03:29:41.225Z,3.88
2022-11-05T03:32:10.000Z,3.80
2022-11-05T03:34:42.452Z,3.75
2022-11-05T03:37:11.026Z,3.53
2022-11-05T03:39:40.940Z,3.60
2022-11-05T03:42:13.201Z,3.03
2022-11-05T03:44:46.196Z,3.38
2022-11-05T03:47:21.703Z,3.20
2022-11-05T03:49:56.123Z,3.40
2022-11-05T03:52:27.869Z,3.20
2022-11-05T03:54:54.803Z,3.30
2022-11-05T03:57:25.769Z,3.10
2022-11-05T03:59:56.125Z,3.33
2022-11-05T04:02:25.859Z,3.10
2022-11-05T04:04:56.726Z,3.28
2022-11-05T04:07:41.819Z,3.70
2022-11-05T04:10:28.591Z,3.75
2022-11-05T04:13:13.783Z,3.75
2022-11-05T04:15:59.165Z,3.50
2022-11-05T04:18:27.489Z,3.63
2022-11-05T04:21:14.578Z,3.50
2022-11-05T04:23:59.985Z,3.25
2022-11-05T04:26:27.041Z,3.30
2022-11-05T04:29:12.552Z,3.72
2022-11-05T04:31:39.706Z,3.28
2022-11-05T04:34:06.472Z,3.80
2022-11-05T04:36:34.719Z,4.07
2022-11-05T04:39:01.604Z,3.42
2022-11-05T04:41:28.252Z,3.40
2022-11-05T04:43:55.016Z,3.97
2022-11-05T04:46:21.577Z,3.42
2022-11-05T04:48:48.516Z,3.88
2022-11-05T04:51:15.408Z,3.83
2022-11-05T04:53:43.669Z,4.32
2022-11-05T04:56:11.542Z,3.97
2022-11-05T04:58:42.079Z,3.95
2022-11-05T05:01:12.907Z,4.15
2022-11-05T05:03:40.145Z,4.20
2022-11-05T05:06:07.224Z,4.18
2022-11-05T05:08:34.975Z,4.40
2022-11-05T05:11:04.529Z,4.13
2022-11-05T05:13:32.139Z,4.55
2022-11-05T05:15:59.088Z,5.00
2022-11-05T05:18:26.829Z,4.70
2022-11-05T05:21:15.816Z,5.10
2022-11-05T05:23:44.029Z,4.80
2022-11-05T05:26:12.244Z,4.78
2022-11-05T05:28:38.869Z,4.97
2022-11-05T05:31:06.037Z,4.95
2022-11-05T05:33:32.717Z,5.00
2022-11-05T05:36:00.281Z,5.18
2022-11-05T05:38:27.126Z,5.10
2022-11-05T05:40:58.387Z,5.25
2022-11-05T05:43:28.979Z,5.35
2022-11-05T05:45:57.299Z,4.90
2022-11-05T05:48:24.231Z,5.13
2022-11-05T05:50:52.490Z,5.00
2022-11-05T05:53:21.626Z,5.68
2022-11-05T05:55:48.578Z,5.72
2022-11-05T05:58:15.974Z,5.45
2022-11-05T06:00:43.941Z,5.93
2022-11-05T06:03:11.014Z,5.88
2022-11-05T06:05:39.472Z,5.50
2022-11-05T06:08:06.427Z,6.20
2022-11-05T06:10:33.208Z,5.82
2022-11-05T06:13:01.617Z,6.15
2022-11-05T06:15:33.168Z,5.85
2022-11-05T06:18:04.183Z,5.68
2022-11-05T06:20:30.750Z,5.80
2022-11-05T06:22:57.817Z,6.03
2022-11-05T06:25:25.620Z,5.50
2022-11-05T06:27:53.586Z,6.35
2022-11-05T06:30:21.736Z,6.40
2022-11-05T06:32:51.551Z,6.17
2022-11-05T06:35:19.540Z,6.20
2022-11-05T06:37:46.191Z,5.97
2022-11-05T06:40:13.115Z,6.55
2022-11-05T06:42:39.730Z,6.95
2022-11-05T06:45:07.868Z,7.15
2022-11-05T06:47:34.765Z,6.20
2022-11-05T06:50:01.437Z,6.20
2022-11-05T06:52:31.298Z,6.70
2022-11-05T06:54:58.196Z,7.30
2022-11-05T06:57:25.208Z,6.68
2022-11-05T06:59:57.120Z,6.78
2022-11-05T07:02:27.296Z,6.80
2022-11-05T07:04:54.063Z,6.95
2022-11-05T07:07:20.967Z,7.38
2022-11-05T07:09:52.208Z,7.25
2022-11-05T07:12:18.861Z,7.38
2022-11-05T07:14:45.804Z,6.93
2022-11-05T07:17:13.866Z,7.35
2022-11-05T07:19:40.524Z,7.00
2022-11-05T07:22:07.175Z,6.90
2022-11-05T07:24:34.097Z,6.68
2022-11-05T07:27:02.064Z,7.45
2022-11-05T07:29:28.736Z,7.45
2022-11-05T07:31:55.383Z,7.22
2022-11-05T07:34:22.233Z,7.63
2022-11-05T07:36:48.910Z,7.80
2022-11-05T07:39:15.553Z,7.88
2022-11-05T07:41:43.051Z,8.02
2022-11-05T07:44:11.749Z,7.55
2022-11-05T07:46:40.696Z,8.05
2022-11-05T07:51:33.925Z,8.13
2022-11-05T07:54:00.763Z,8.40
2022-11-05T07:56:27.482Z,8.43
2022-11-05T07:58:54.606Z,8.90
2022-11-05T08:01:22.857Z,8.95
2022-11-05T08:03:49.807Z,8.52
2022-11-05T08:06:16.602Z,8.80
2022-11-05T08:08:43.308Z,8.13
2022-11-05T08:11:11.341Z,8.70
2022-11-05T08:13:38.654Z,8.87
2022-11-05T08:16:06.009Z,8.90
2022-11-05T08:18:35.956Z,9.18
2022-11-05T08:21:05.343Z,8.45
2022-11-05T08:23:32.899Z,8.90
2022-11-05T08:26:02.212Z,8.45
2022-11-05T08:28:28.860Z,8.88
2022-11-05T08:30:56.926Z,8.27
2022-11-05T08:33:25.743Z,7.03
2022-11-05T08:35:53.718Z,8.40
2022-11-05T08:38:22.075Z,9.10
2022-11-05T08:40:55.022Z,8.75
2022-11-05T08:43:24.790Z,8.05
2022-11-05T08:45:51.512Z,8.25
2022-11-05T08:48:19.288Z,8.70
2022-11-05T08:50:48.348Z,8.70
2022-11-05T08:53:16.988Z,8.80
2022-11-05T08:55:44.155Z,8.98
2022-11-05T08:58:15.000Z,7.93
2022-11-05T09:00:42.004Z,8.13
2022-11-05T09:03:09.736Z,7.65
2022-11-05T09:05:39.131Z,7.63
2022-11-05T09:08:08.394Z,8.38
2022-11-05T09:10:37.140Z,8.43
2022-11-05T09:13:04.587Z,8.85
2022-11-05T09:15:32.405Z,7.45
2022-11-05T09:18:01.836Z,8.00
2022-11-05T09:20:28.858Z,7.50
2022-11-05T09:22:55.454Z,8.27
2022-11-05T09:25:22.121Z,8.52
2022-11-05T09:27:51.658Z,8.73
2022-11-05T09:30:18.781Z,7.78
2022-11-05T09:32:45.577Z,7.22
2022-11-05T09:35:12.243Z,7.82
2022-11-05T09:37:39.004Z,7.63
2022-11-05T09:40:07.170Z,7.68
2022-11-05T09:42:39.592Z,7.80
2022-11-05T09:45:15.036Z,7.25
2022-11-05T09:47:46.912Z,7.53
2022-11-05T09:50:16.184Z,8.45
2022-11-05T09:52:43.036Z,7.20
2022-11-05T09:55:20.932Z,7.00
2022-11-05T09:57:54.085Z,7.43
2022-11-05T10:00:22.554Z,7.25
2022-11-05T10:02:53.672Z,7.82
2022-11-05T10:05:22.392Z,7.10
2022-11-05T10:07:51.394Z,7.38
2022-11-05T10:10:31.083Z,8.02
2022-11-05T10:13:02.173Z,7.82
2022-11-05T10:15:34.388Z,7.05
2022-11-05T10:18:10.175Z,6.93
2022-11-05T10:20:39.010Z,7.05
2022-11-05T10:25:39.624Z,5.90
2022-11-05T10:28:07.900Z,6.70
2022-11-05T10:30:36.161Z,7.32
2022-11-05T10:33:05.651Z,6.55
2022-11-05T10:35:39.655Z,6.82
2022-11-05T10:38:06.795Z,6.15
2022-11-05T10:40:45.860Z,6.88
2022-11-05T10:43:17.739Z,6.82
2022-11-05T10:45:52.523Z,6.80
2022-11-05T10:48:37.033Z,6.22
2022-11-05T10:51:08.698Z,5.97
2022-11-05T10:53:38.567Z,6.60
2022-11-05T10:56:31.344Z,5.80
2022-11-05T10:59:00.543Z,5.63
2022-11-05T11:01:29.565Z,6.90
2022-11-05T11:04:08.530Z,6.50
2022-11-05T11:06:39.106Z,6.18
2022-11-05T11:09:18.518Z,5.80
2022-11-05T11:11:45.701Z,6.20
2022-11-05T11:14:22.344Z,7.35
2022-11-05T11:16:51.713Z,6.25
2022-11-05T11:19:25.884Z,6.35
2022-11-05T11:22:18.902Z,6.22
2022-11-05T11:24:48.112Z,6.43
2022-11-05T11:27:17.902Z,5.68
2022-11-05T11:29:49.828Z,6.60
2022-11-05T11:32:20.369Z,6.28
2022-11-05T11:34:51.336Z,5.85
2022-11-05T11:37:23.750Z,6.05
2022-11-05T11:39:54.297Z,6.00
2022-11-05T11:42:27.913Z,6.13
2022-11-05T11:44:56.411Z,6.10
2022-11-05T11:47:26.952Z,5.45
2022-11-05T11:49:54.921Z,5.13
2022-11-05T11:52:28.114Z,5.07
2022-11-05T11:55:17.103Z,5.25
2022-11-05T11:57:45.950Z,5.47
2022-11-05T12:03:05.145Z,4.68
2022-11-05T12:05:39.950Z,4.93
2022-11-05T12:08:22.767Z,4.53
2022-11-05T12:11:01.343Z,5.07
2022-11-05T12:14:09.908Z,5.25
2022-11-05T12:19:54.057Z,4.68
2022-11-05T12:22:31.491Z,4.68
2022-11-05T12:25:22.867Z,4.82
2022-11-05T12:28:10.516Z,4.47
2022-11-05T12:30:53.319Z,5.15
2022-11-05T12:33:27.514Z,4.28
2022-11-05T12:36:09.677Z,4.72
2022-11-05T12:38:58.739Z,4.75
2022-11-05T12:41:31.301Z,5.47
2022-11-05T12:44:16.076Z,5.03
2022-11-05T12:46:52.632Z,4.80
2022-11-05T12:49:35.459Z,4.88
2022-11-05T12:52:21.821Z,5.10
2022-11-05T12:54:59.851Z,5.03
2022-11-05T12:57:30.066Z,5.47
2022-11-05T13:00:04.769Z,5.72
2022-11-05T13:02:37.741Z,6.03
2022-11-05T13:05:06.670Z,5.10
2022-11-05T13:10:25.245Z,4.57
2022-11-05T13:13:05.085Z,4.82
2022-11-05T13:15:36.360Z,4.78
2022-11-05T13:18:09.443Z,5.07
2022-11-05T13:20:39.987Z,5.47
2022-11-05T13:23:16.303Z,5.75
2022-11-05T13:25:50.813Z,5.13
2022-11-05T13:28:28.092Z,5.65
2022-11-05T13:30:58.383Z,5.55
2022-11-05T13:33:31.807Z,5.65
2022-11-05T13:36:25.302Z,6.25
2022-11-05T13:39:01.315Z,6.10
2022-11-05T13:41:53.519Z,5.60
2022-11-05T13:45:04.745Z,6.15
2022-11-05T13:47:50.412Z,5.88
2022-11-05T13:50:30.951Z,5.82
2022-11-05T13:53:17.157Z,6.00
2022-11-05T13:56:12.027Z,5.95
2022-11-05T13:59:03.000Z,5.93
2022-11-05T14:01:45.606Z,5.60
2022-11-05T14:04:21.328Z,5.80
2022-11-05T14:06:48.173Z,5.97
2022-11-05T14:09:19.941Z,5.53
2022-11-05T14:11:52.829Z,5.53
2022-11-05T14:14:23.903Z,6.03
2022-11-05T14:16:53.106Z,5.35
2022-11-05T14:19:50.233Z,5.93
2022-11-05T14:22:37.706Z,5.63
2022-11-05T14:25:37.704Z,5.70
2022-11-05T14:28:28.519Z,5.50
2022-11-05T14:30:55.333Z,6.05
2022-11-05T14:33:37.334Z,5.43
2022-11-05T14:36:33.897Z,5.03
2022-11-05T14:39:13.989Z,6.05
2022-11-05T14:42:00.721Z,5.88
2022-11-05T14:44:29.869Z,5.53
2022-11-05T14:46:59.826Z,5.43
2022-11-05T14:49:30.495Z,5.45
2022-11-05T14:51:59.527Z,4.93
2022-11-05T14:54:33.270Z,4.38
2022-11-05T14:57:02.532Z,4.35
2022-11-05T15:00:01.166Z,4.30
2022-11-05T15:02:34.465Z,4.00
2022-11-05T15:05:37.245Z,4.28
2022-11-05T15:08:27.977Z,3.70
2022-11-05T15:11:02.706Z,3.92
2022-11-05T15:13:33.677Z,3.83
2022-11-05T15:16:03.704Z,3.90
2022-11-05T15:18:35.379Z,4.20
2022-11-05T15:21:04.834Z,3.97
2022-11-05T15:23:38.937Z,3.95
2022-11-05T15:26:10.985Z,3.92
2022-11-05T15:28:40.679Z,3.80
2022-11-05T15:31:24.603Z,4.22
2022-11-05T15:33:51.214Z,4.05
2022-11-05T15:36:24.080Z,3.80
2022-11-05T15:39:15.050Z,4.07
2022-11-05T15:41:38.629Z,4.22
2022-11-05T15:44:05.276Z,4.03
2022-11-05T15:46:33.349Z,4.22
2022-11-05T15:49:04.826Z,3.83
2022-11-05T15:51:31.633Z,4.05
2022-11-05T15:54:29.816Z,3.60
2022-11-05T15:56:50.453Z,3.50
2022-11-05T15:59:19.421Z,3.92
2022-11-05T16:01:50.023Z,4.00
2022-11-05T16:04:19.711Z,4.40
2022-11-05T16:06:49.024Z,4.40
2022-11-05T16:09:27.600Z,3.85
2022-11-05T16:12:13.152Z,4.05
2022-11-05T16:14:40.737Z,4.45
2022-11-05T16:17:20.875Z,4.10
2022-11-05T16:19:52.212Z,4.05
2022-11-05T16:22:19.777Z,4.05
2022-11-05T16:24:53.470Z,3.88
2022-11-05T16:27:22.943Z,4.70
2022-11-05T16:29:52.603Z,3.80
2022-11-05T16:32:29.491Z,4.00
2022-11-05T16:34:59.177Z,3.80
2022-11-05T16:37:27.462Z,4.03
2022-11-05T16:39:55.556Z,4.03
2022-11-05T16:42:40.260Z,4.15
2022-11-05T16:45:10.203Z,3.60
2022-11-05T16:47:38.372Z,3.70
2022-11-05T16:50:14.721Z,3.95
2022-11-05T16:52:41.549Z,3.95
2022-11-05T16:55:09.432Z,4.32
2022-11-05T16:57:36.177Z,4.72
2022-11-05T17:00:04.381Z,4.47
2022-11-05T17:02:31.202Z,4.65
2022-11-05T17:04:59.385Z,4.35
2022-11-05T17:07:25.965Z,4.15
2022-11-05T17:09:52.672Z,3.95
2022-11-05T17:12:19.268Z,3.83
2022-11-05T17:14:45.939Z,4.43
2022-11-05T17:17:12.557Z,4.10
2022-11-05T17:19:43.127Z,3.78
2022-11-05T17:22:11.099Z,4.00
2022-11-05T17:24:39.037Z,4.20
2022-11-05T17:27:05.696Z,4.03
2022-11-05T17:29:32.344Z,3.97
2022-11-05T17:31:59.111Z,4.28
2022-11-05T17:34:25.673Z,3.97
2022-11-05T17:36:52.364Z,4.13
2022-11-05T17:39:20.759Z,3.95
2022-11-05T17:41:47.878Z,4.05
2022-11-05T17:44:14.624Z,3.50
2022-11-05T17:46:41.196Z,3.88
2022-11-05T17:49:07.864Z,3.90
2022-11-05T17:51:34.921Z,3.60
2022-11-05T17:54:01.703Z,3.80
2022-11-05T17:56:34.957Z,3.80
2022-11-05T17:59:03.228Z,3.80
2022-11-05T18:01:34.856Z,4.00
2022-11-05T18:04:08.243Z,3.88
2022-11-05T18:06:35.518Z,4.05
2022-11-05T18:09:03.083Z,4.00
2022-11-05T18:11:31.051Z,3.90
2022-11-05T18:13:57.830Z,4.20
2022-11-05T18:16:24.567Z,4.20
2022-11-05T18:18:51.262Z,4.20
2022-11-05T18:21:18.188Z,4.10
2022-11-05T18:23:45.103Z,4.10
2022-11-05T18:26:13.826Z,4.38
2022-11-05T18:28:42.180Z,4.07
2022-11-05T18:31:16.859Z,3.85
2022-11-05T18:33:44.824Z,3.97
2022-11-05T18:36:17.066Z,3.97
2022-11-05T18:38:43.681Z,4.15
2022-11-05T18:41:10.376Z,4.32
2022-11-05T18:43:36.954Z,3.95
2022-11-05T18:46:06.225Z,4.10
2022-11-05T18:48:33.131Z,4.25
2022-11-05T18:51:02.059Z,4.03
2022-11-05T18:53:28.925Z,4.63
2022-11-05T18:55:55.534Z,3.92
2022-11-05T18:58:22.132Z,4.20
2022-11-05T19:00:48.803Z,4.28
2022-11-05T19:03:16.773Z,3.80
2022-11-05T19:05:43.402Z,4.43
2022-11-05T19:08:10.260Z,4.22
2022-11-05T19:10:39.877Z,4.13
2022-11-05T19:13:06.461Z,4.40
2022-11-05T19:15:33.182Z,3.90
2022-11-05T19:17:59.864Z,3.88
2022-11-05T19:20:28.148Z,3.78
2022-11-05T19:22:54.766Z,4.20
2022-11-05T19:25:21.445Z,4.20
2022-11-05T19:27:48.130Z,3.83
2022-11-05T19:30:14.796Z,3.92
2022-11-05T19:32:41.503Z,4.38
2022-11-05T19:35:08.802Z,3.83
2022-11-05T19:37:36.773Z,4.47
2022-11-05T19:40:03.898Z,3.97
2022-11-05T19:42:30.551Z,4.53
2022-11-05T19:45:06.825Z,4.18
2022-11-05T19:47:43.549Z,4.45
2022-11-05T19:50:10.351Z,4.53
2022-11-05T19:52:38.405Z,4.03
2022-11-05T19:55:11.861Z,4.37
2022-11-05T19:57:39.183Z,4.45
2022-11-05T20:00:06.922Z,4.70
2022-11-05T20:02:33.635Z,4.95
2022-11-05T20:05:00.279Z,4.65
2022-11-05T20:07:27.468Z,5.03
2022-11-05T20:09:55.447Z,4.72
2022-11-05T20:12:22.328Z,5.83
2022-11-05T20:14:48.950Z,4.97
2022-11-05T20:17:20.313Z,5.22
2022-11-05T20:19:46.938Z,4.90
2022-11-05T20:22:14.409Z,5.40
2022-11-05T20:24:41.040Z,5.32
2022-11-05T20:27:09.764Z,5.35
2022-11-05T20:29:36.694Z,5.53
2022-11-05T20:32:03.993Z,5.63
2022-11-05T20:34:32.415Z,5.57
2022-11-05T20:36:59.428Z,5.57
2022-11-05T20:39:26.114Z,6.00
2022-11-05T20:41:53.593Z,5.55
2022-11-05T20:44:21.685Z,5.60
2022-11-05T20:46:49.164Z,5.40
2022-11-05T20:49:17.254Z,5.35
2022-11-05T20:51:45.662Z,5.70
2022-11-05T20:54:12.305Z,5.57
2022-11-05T20:56:38.965Z,5.63
2022-11-05T20:59:05.827Z,6.43
2022-11-05T21:01:34.392Z,5.78
2022-11-05T21:04:01.876Z,6.10
2022-11-05T21:06:28.637Z,6.35
2022-11-05T21:08:55.375Z,6.60
2022-11-05T21:11:22.710Z,6.18
2022-11-05T21:13:49.518Z,6.47
2022-11-05T21:16:20.944Z,6.35
2022-11-05T21:18:49.027Z,7.28
2022-11-05T21:21:17.961Z,6.22
2022-11-05T21:26:13.271Z,6.68
2022-11-05T21:28:44.438Z,7.82
2022-11-05T21:31:11.196Z,7.13
2022-11-05T21:33:38.049Z,6.85
2022-11-05T21:36:12.052Z,6.65
2022-11-05T21:38:41.553Z,6.95
2022-11-05T21:41:11.719Z,7.50
2022-11-05T21:43:39.349Z,6.90
2022-11-05T21:46:06.148Z,7.25
2022-11-05T21:48:33.005Z,6.50
2022-11-05T21:51:18.341Z,7.03
2022-11-05T21:54:04.587Z,6.78
2022-11-05T21:56:50.512Z,7.10
2022-11-05T21:59:38.800Z,6.88
2022-11-05T22:02:06.827Z,6.47
2022-11-05T22:04:35.453Z,6.82
2022-11-05T22:07:02.844Z,7.22
2022-11-05T22:09:32.202Z,7.80
2022-11-05T22:11:59.773Z,6.88
2022-11-05T22:14:27.257Z,7.35
2022-11-05T22:16:54.274Z,6.20
2022-11-05T22:19:21.500Z,6.85
2022-11-05T22:21:48.835Z,6.30
2022-11-05T22:24:16.747Z,6.78
2022-11-05T22:26:45.372Z,6.32
2022-11-05T22:29:12.894Z,6.55
2022-11-05T22:31:39.813Z,6.55
2022-11-05T22:34:07.632Z,6.50
2022-11-05T22:36:34.990Z,6.65
2022-11-05T22:39:02.375Z,6.10
2022-11-05T22:41:29.173Z,6.25
2022-11-05T22:43:57.753Z,6.13
2022-11-05T22:46:26.065Z,6.57
2022-11-05T22:48:53.309Z,6.10
2022-11-05T22:51:22.114Z,5.95
2022-11-05T22:56:18.610Z,6.10
2022-11-05T22:58:45.451Z,5.80
2022-11-05T23:01:16.061Z,5.35
2022-11-05T23:03:44.701Z,6.10
2022-11-05T23:06:34.731Z,5.72
2022-11-05T23:09:22.801Z,6.35
2022-11-05T23:11:52.829Z,5.95
2022-11-05T23:14:22.488Z,6.45
2022-11-05T23:17:09.426Z,5.88
2022-11-05T23:19:54.589Z,5.65
2022-11-05T23:22:42.951Z,5.32
2022-11-05T23:25:11.852Z,5.50
2022-11-05T23:30:09.776Z,5.70
2022-11-05T23:32:37.770Z,5.35
2022-11-05T23:35:05.500Z,6.20
2022-11-05T23:37:51.228Z,6.25
2022-11-05T23:40:21.781Z,5.47
2022-11-05T23:43:07.460Z,6.15
2022-11-05T23:45:49.500Z,5.80
2022-11-05T23:48:22.407Z,5.50
2022-11-05T23:50:53.243Z,5.22
2022-11-05T23:53:20.944Z,4.97
2022-11-05T23:55:48.080Z,5.60
2022-11-05T23:58:15.321Z,5.00
